^^
Station Historical Data
Daily Summary for December 07, 2017 Units:  Metric    English   Both
« Previous Day
Next Day »
Daily Weekly Monthly Yearly Custom
  High: Low: Average:
Temperature: 7.2 °C -0.4 °C 2.8 °C
Dew Point: 1.6 °C -4.8 °C -1.3 °C
Humidity: 98% 46% 77%
Wind Speed: 1.4km/h 0km/h 0km/h
Wind Gust: 6.4km/h - -
Wind- - East
Pressure: 1022.9 hPa 1018.8 hPa -
Precipitation: 0 mm    
Historical Graphs
 
 
Tabular Data for December 07, 2017
Time Temperature Dew Point Pressure Wind Wind Speed Wind Gust Humidity Rainfall Rate (Hourly)
00:04 1.7 °C 0.5 °C 1021.6 hPa Calm     92% 0 mm
00:09 1.7 °C 0.5 °C 1021.6 hPa Calm     92% 0 mm
00:14 1.7 °C 0.5 °C 1021.6 hPa Calm     92% 0 mm
00:19 1.6 °C 0.6 °C 1021.6 hPa Calm     93% 0 mm
00:24 1.6 °C 0.6 °C 1021.6 hPa Calm     93% 0 mm
00:29 1.6 °C 0.6 °C 1021.6 hPa Calm     93% 0 mm
00:34 1.6 °C 0.6 °C 1021.6 hPa Calm     93% 0 mm
00:35 1.6 °C 0.6 °C 1021.6 hPa Calm     93% 0 mm
00:40 1.6 °C 0.6 °C 1021.2 hPa Calm     93% 0 mm
00:45 1.6 °C 0.6 °C 1021.2 hPa Calm     93% 0 mm
00:50 1.6 °C 0.7 °C 1021.2 hPa Calm     94% 0 mm
00:55 1.6 °C 0.7 °C 1021.2 hPa Calm     94% 0 mm
01:00 1.6 °C 0.7 °C 1021.2 hPa Calm     94% 0 mm
01:05 1.6 °C 0.7 °C 1021.2 hPa Calm     94% 0 mm
01:10 1.6 °C 0.7 °C 1021.2 hPa Calm     94% 0 mm
01:15 1.6 °C 0.7 °C 1021.6 hPa Calm     94% 0 mm
01:20 1.5 °C 0.6 °C 1021.6 hPa Calm     94% 0 mm
01:25 1.5 °C 0.6 °C 1021.6 hPa Calm     94% 0 mm
01:30 1.6 °C 0.7 °C 1021.2 hPa Calm     94% 0 mm
01:35 1.6 °C 0.7 °C 1021.2 hPa Calm     94% 0 mm
01:40 1.5 °C 0.6 °C 1021.2 hPa Calm     94% 0 mm
01:45 1.5 °C 0.6 °C 1021.2 hPa Calm     94% 0 mm
01:50 1.5 °C 0.6 °C 1021.2 hPa Calm     94% 0 mm
01:55 1.5 °C 0.6 °C 1021.2 hPa Calm     94% 0 mm
02:00 1.6 °C 0.7 °C 1021.2 hPa Calm     94% 0 mm
02:06 1.5 °C 0.6 °C 1021.2 hPa Calm     94% 0 mm
02:11 1.5 °C 0.6 °C 1021.2 hPa Calm     94% 0 mm
02:16 1.4 °C 0.5 °C 1021.2 hPa Calm     94% 0 mm
02:21 1.4 °C 0.7 °C 1021.2 hPa Calm     95% 0 mm
02:26 1.4 °C 0.7 °C 1021.6 hPa Calm     95% 0 mm
02:31 1.4 °C 0.7 °C 1021.2 hPa Calm     95% 0 mm
02:36 1.3 °C 0.6 °C 1021.6 hPa Calm     95% 0 mm
02:41 1.3 °C 0.6 °C 1021.6 hPa Calm     95% 0 mm
02:46 1.3 °C 0.6 °C 1021.6 hPa Calm     95% 0 mm
02:51 1.3 °C 0.6 °C 1021.2 hPa Calm     95% 0 mm
02:56 1.3 °C 0.6 °C 1021.6 hPa Calm     95% 0 mm
03:01 1.3 °C 0.6 °C 1021.2 hPa Calm     95% 0 mm
03:06 1.3 °C 0.6 °C 1021.2 hPa Calm     95% 0 mm
03:11 1.3 °C 0.7 °C 1021.2 hPa Calm     96% 0 mm
03:16 1.3 °C 0.7 °C 1021.2 hPa Calm     96% 0 mm
03:21 1.3 °C 0.7 °C 1021.2 hPa Calm     96% 0 mm
03:26 1.3 °C 0.7 °C 1021.2 hPa Calm     96% 0 mm
03:31 1.3 °C 0.7 °C 1021.2 hPa Calm     96% 0 mm
03:36 1.3 °C 0.7 °C 1021.6 hPa Calm     96% 0 mm
03:41 1.3 °C 0.7 °C 1021.6 hPa Calm     96% 0 mm
03:46 1.2 °C 0.6 °C 1021.2 hPa Calm     96% 0 mm
03:51 1.2 °C 0.6 °C 1021.6 hPa Calm     96% 0 mm
03:56 1.2 °C 0.6 °C 1021.6 hPa Calm     96% 0 mm
04:01 1.2 °C 0.6 °C 1021.2 hPa Calm     96% 0 mm
04:06 1.1 °C 0.5 °C 1021.6 hPa Calm     96% 0 mm
04:12 1.1 °C 0.5 °C 1021.2 hPa Calm     96% 0 mm
04:17 1.1 °C 0.5 °C 1021.2 hPa Calm     96% 0 mm
04:22 1.1 °C 0.5 °C 1021.2 hPa Calm     96% 0 mm
04:27 1 °C 0.4 °C 1021.2 hPa Calm     96% 0 mm
04:32 1 °C 0.4 °C 1021.2 hPa Calm     96% 0 mm
04:37 0.9 °C 0.5 °C 1021.2 hPa Calm     97% 0 mm
04:42 0.9 °C 0.5 °C 1021.2 hPa Calm     97% 0 mm
04:47 0.9 °C 0.5 °C 1021.2 hPa Calm     97% 0 mm
04:52 0.8 °C 0.2 °C 1021.2 hPa Calm     96% 0 mm
04:57 0.7 °C 0.1 °C 1021.2 hPa Calm     96% 0 mm
05:02 0.7 °C 0.3 °C 1021.2 hPa Calm     97% 0 mm
05:07 0.7 °C 0.3 °C 1021.2 hPa Calm     97% 0 mm
05:12 0.7 °C 0.3 °C 1021.2 hPa Calm     97% 0 mm
05:17 0.7 °C 0.3 °C 1021.2 hPa Calm     97% 0 mm
05:22 0.6 °C 0 °C 1021.2 hPa Calm     96% 0 mm
05:27 0.5 °C -0.1 °C 1021.2 hPa Calm     96% 0 mm
05:32 0.5 °C -0.1 °C 1021.2 hPa Calm     96% 0 mm
05:37 0.4 °C -0.2 °C 1021.2 hPa Calm     96% 0 mm
05:42 0.4 °C -0.2 °C 1021.2 hPa Calm     96% 0 mm
05:47 0.4 °C -0.2 °C 1021.2 hPa Calm     96% 0 mm
05:52 0.3 °C -0.3 °C 1021.2 hPa Calm     96% 0 mm
05:57 0.3 °C -0.3 °C 1021.2 hPa Calm     96% 0 mm
06:02 0.3 °C -0.1 °C 1021.2 hPa Calm     97% 0 mm
06:07 0.3 °C -0.1 °C 1021.2 hPa Calm     97% 0 mm
06:12 0.3 °C -0.1 °C 1021.2 hPa Calm     97% 0 mm
06:13 0.3 °C -0.1 °C 1021.2 hPa Calm     97% 0 mm
06:18 0.3 °C -0.1 °C 1021.6 hPa Calm     97% 0 mm
06:23 0.3 °C -0.1 °C 1021.6 hPa Calm     97% 0 mm
06:28 0.2 °C -0.2 °C 1021.6 hPa Calm     97% 0 mm
06:33 0.2 °C -0.2 °C 1021.6 hPa Calm     97% 0 mm
06:38 0.1 °C -0.3 °C 1021.6 hPa Calm     97% 0 mm
06:43 0.1 °C -0.3 °C 1021.6 hPa Calm     97% 0 mm
06:48 -0.1 °C -0.5 °C 1021.9 hPa Calm     97% 0 mm
06:53 -0.1 °C -0.5 °C 1021.9 hPa Calm     97% 0 mm
06:58 -0.1 °C -0.5 °C 1021.9 hPa Calm     97% 0 mm
07:03 -0.1 °C -0.5 °C 1021.9 hPa Calm     97% 0 mm
07:08 -0.2 °C -0.6 °C 1021.9 hPa Calm     97% 0 mm
07:13 -0.3 °C -0.7 °C 1021.9 hPa Calm     97% 0 mm
07:18 -0.3 °C -0.7 °C 1021.9 hPa Calm     97% 0 mm
07:23 -0.4 °C -0.8 °C 1022.2 hPa Calm     97% 0 mm
07:28 -0.4 °C -0.8 °C 1022.2 hPa Calm     97% 0 mm
07:34 -0.4 °C -0.8 °C 1021.9 hPa Calm     97% 0 mm
07:39 -0.4 °C -0.8 °C 1022.2 hPa Calm     97% 0 mm
07:44 -0.4 °C -0.8 °C 1022.2 hPa Calm     97% 0 mm
07:54 -0.3 °C -0.6 °C 1022.2 hPa Calm     98% 0 mm
07:59 -0.2 °C -0.5 °C 1022.2 hPa Calm     98% 0 mm
08:04 -0.1 °C -0.4 °C 1022.6 hPa Calm     98% 0 mm
08:09 0.1 °C -0.2 °C 1022.6 hPa Calm     98% 0 mm
08:14 0.2 °C -0.1 °C 1022.2 hPa Calm     98% 0 mm
08:20 0.2 °C -0.1 °C 1022.2 hPa Calm     98% 0 mm
08:35 0.3 °C 0 °C 1022.6 hPa Calm     98% 0 mm
08:40 0.4 °C 0.1 °C 1022.2 hPa Calm   1.6 km/h 98% 0 mm
08:45 0.6 °C 0.3 °C 1022.2 hPa Calm   1.6 km/h 98% 0 mm
08:50 0.7 °C 0.4 °C 1022.6 hPa Calm     98% 0 mm
09:00 0.9 °C 0.6 °C 1022.9 hPa Calm     98% 0 mm
09:15 1.6 °C 1.3 °C 1022.9 hPa Calm     98% 0 mm
09:25 1.9 °C 1.5 °C 1022.6 hPa Calm     97% 0 mm
09:30 1.9 °C 1.3 °C 1022.9 hPa Calm   1.6 km/h 96% 0 mm
09:35 1.9 °C 1.2 °C 1022.6 hPa Calm     95% 0 mm
09:50 2.6 °C 1.6 °C 1022.9 hPa Calm     93% 0 mm
09:55 2.8 °C 1.5 °C 1022.9 hPa East 1.4 km/h 1.6 km/h 91% 0 mm
10:00 3.1 °C 1.3 °C 1022.9 hPa Calm   1.6 km/h 88% 0 mm
10:05 3.2 °C 1.4 °C 1022.9 hPa Calm   1.6 km/h 88% 0 mm
10:10 3.4 °C 1.3 °C 1022.9 hPa Calm     86% 0 mm
10:20 3.7 °C 0.6 °C 1022.9 hPa Calm     80% 0 mm
10:25 4.2 °C 1.6 °C 1022.9 hPa Calm     83% 0 mm
10:40 5 °C 0.6 °C 1022.9 hPa Calm     73% 0 mm
10:50 4.8 °C -0.2 °C 1022.9 hPa Calm   1.6 km/h 70% 0 mm
10:55 4.9 °C -0.1 °C 1022.6 hPa NE 1.4 km/h 3.2 km/h 70% 0 mm
11:00 4.8 °C -0.8 °C 1022.6 hPa Calm   1.6 km/h 67% 0 mm
11:16 5.7 °C -0.2 °C 1022.2 hPa ESE 1.4 km/h 1.6 km/h 66% 0 mm
11:23 5.8 °C -0.3 °C 1022.2 hPa Calm     65% 0 mm
11:28 5.9 °C -0.2 °C 1022.2 hPa Calm   1.6 km/h 65% 0 mm
11:38 5.8 °C -1.1 °C 1022.2 hPa Calm   1.6 km/h 61% 0 mm
11:43 5.8 °C -2.5 °C 1022.2 hPa Calm     55% 0 mm
11:48 5.7 °C -1.9 °C 1022.2 hPa Calm   1.6 km/h 58% 0 mm
11:53 5.8 °C -1.6 °C 1022.2 hPa ENE 1.4 km/h 3.2 km/h 59% 0 mm
11:58 5.9 °C -1 °C 1022.2 hPa Calm     61% 0 mm
12:08 6 °C -1.4 °C 1021.9 hPa Calm   3.2 km/h 59% 0 mm
12:33 6.1 °C -1.8 °C 1021.2 hPa Calm   1.6 km/h 57% 0 mm
12:38 6.2 °C -1.5 °C 1021.2 hPa Calm   3.2 km/h 58% 0 mm
12:48 6.1 °C -0.9 °C 1020.9 hPa Calm   1.6 km/h 61% 0 mm
12:53 6.1 °C -1.1 °C 1020.9 hPa Calm     60% 0 mm
12:58 6.2 °C -1.7 °C 1020.5 hPa Calm   1.6 km/h 57% 0 mm
13:03 6.3 °C -1.4 °C 1020.5 hPa ESE 1.4 km/h 3.2 km/h 58% 0 mm
13:08 6.4 °C -0.8 °C 1020.5 hPa Calm   3.2 km/h 60% 0 mm
13:13 6.5 °C -2.4 °C 1020.2 hPa Calm   4.8 km/h 53% 0 mm
13:24 6.8 °C -1.6 °C 1020.2 hPa Calm     55% 0 mm
13:29 7.1 °C -1.3 °C 1019.9 hPa Calm   1.6 km/h 55% 0 mm
13:34 7.1 °C -2.4 °C 1019.9 hPa ENE 1.4 km/h 3.2 km/h 51% 0 mm
13:39 7.1 °C -2.9 °C 1019.5 hPa Calm   1.6 km/h 49% 0 mm
13:44 7.1 °C -2.4 °C 1019.5 hPa Calm     51% 0 mm
13:49 7.2 °C -2.5 °C 1019.5 hPa Calm     50% 0 mm
13:54 7.1 °C -3.7 °C 1019.5 hPa SE 1.4 km/h 3.2 km/h 46% 0 mm
13:59 7 °C -3.3 °C 1019.5 hPa Calm   1.6 km/h 48% 0 mm
14:04 7.1 °C -1.8 °C 1019.5 hPa Calm   3.2 km/h 53% 0 mm
14:19 7.1 °C -1.8 °C 1019.5 hPa Calm   1.6 km/h 53% 0 mm
14:29 6.9 °C -3.1 °C 1019.5 hPa Calm     49% 0 mm
14:34 6.9 °C -2.3 °C 1019.5 hPa Calm   3.2 km/h 52% 0 mm
14:44 6.8 °C -2.6 °C 1019.5 hPa ENE 1.4 km/h 1.6 km/h 51% 0 mm
14:49 6.9 °C -1.8 °C 1019.5 hPa Calm   1.6 km/h 54% 0 mm
14:54 6.9 °C -2.8 °C 1019.2 hPa Calm   1.6 km/h 50% 0 mm
14:59 6.9 °C -2.8 °C 1019.2 hPa Calm   6.4 km/h 50% 0 mm
15:09 7.1 °C -2.6 °C 1018.8 hPa Calm   1.6 km/h 50% 0 mm
15:14 7 °C -2.7 °C 1019.2 hPa Calm   1.6 km/h 50% 0 mm
15:19 7 °C -3.5 °C 1019.2 hPa Calm   1.6 km/h 47% 0 mm
15:24 7.1 °C -2.4 °C 1019.2 hPa Calm     51% 0 mm
15:34 7 °C -2.5 °C 1019.5 hPa ENE 1.4 km/h 1.6 km/h 51% 0 mm
15:39 6.9 °C -3.1 °C 1019.5 hPa Calm   3.2 km/h 49% 0 mm
15:44 6.8 °C -4 °C 1019.5 hPa Calm   3.2 km/h 46% 0 mm
15:49 6.8 °C -3.7 °C 1019.5 hPa Calm   1.6 km/h 47% 0 mm
15:55 6.7 °C -3.8 °C 1019.5 hPa Calm   3.2 km/h 47% 0 mm
16:00 6.6 °C -3.9 °C 1019.5 hPa Calm   1.6 km/h 47% 0 mm
16:05 6.5 °C -3.7 °C 1019.5 hPa Calm   1.6 km/h 48% 0 mm
16:15 6.3 °C -3.9 °C 1019.5 hPa Calm   3.2 km/h 48% 0 mm
16:20 6.3 °C -3.6 °C 1019.5 hPa Calm     49% 0 mm
16:25 6.3 °C -2.8 °C 1019.5 hPa Calm     52% 0 mm
16:30 6.2 °C -3.2 °C 1019.5 hPa Calm   1.6 km/h 51% 0 mm
16:35 6.1 °C -3.8 °C 1019.5 hPa Calm     49% 0 mm
16:40 6 °C -4.5 °C 1019.5 hPa Calm   1.6 km/h 47% 0 mm
16:51 5.7 °C -4.2 °C 1019.9 hPa Calm     49% 0 mm
17:06 5.3 °C -4.3 °C 1019.9 hPa Calm     50% 0 mm
17:11 5.2 °C -3.9 °C 1019.9 hPa Calm     52% 0 mm
17:16 5.1 °C -3.7 °C 1019.9 hPa Calm     53% 0 mm
17:21 5 °C -3.8 °C 1019.9 hPa Calm     53% 0 mm
17:31 4.7 °C -4.3 °C 1020.2 hPa Calm     52% 0 mm
17:36 4.5 °C -4.3 °C 1020.2 hPa Calm     53% 0 mm
17:41 4.4 °C -4.6 °C 1020.2 hPa Calm     52% 0 mm
17:46 4.4 °C -4.6 °C 1020.2 hPa Calm     52% 0 mm
17:56 4.2 °C -4.8 °C 1020.2 hPa Calm     52% 0 mm
18:16 3.9 °C -4.6 °C 1020.2 hPa Calm     54% 0 mm
18:21 3.9 °C -4.8 °C 1020.2 hPa Calm   1.6 km/h 53% 0 mm
18:23 3.9 °C -4.6 °C 1020.2 hPa Calm     54% 0 mm
18:28 3.9 °C -4.6 °C 1020.2 hPa Calm     54% 0 mm
18:33 3.9 °C -4.3 °C 1020.2 hPa Calm   1.6 km/h 55% 0 mm
18:38 3.9 °C -4.3 °C 1020.2 hPa Calm     55% 0 mm
18:43 3.8 °C -4.4 °C 1020.2 hPa Calm     55% 0 mm
18:48 3.7 °C -4.5 °C 1020.2 hPa Calm     55% 0 mm
18:54 3.6 °C -4.4 °C 1020.2 hPa Calm   1.6 km/h 56% 0 mm
19:09 3.4 °C -4.3 °C 1020.5 hPa Calm     57% 0 mm
19:14 3.4 °C -3.9 °C 1020.2 hPa Calm     59% 0 mm
19:19 3.4 °C -3.9 °C 1020.2 hPa Calm     59% 0 mm
19:24 3.3 °C -3.7 °C 1020.2 hPa Calm     60% 0 mm
19:29 3.2 °C -3.8 °C 1020.2 hPa Calm     60% 0 mm
19:44 3.2 °C -3.8 °C 1020.2 hPa Calm     60% 0 mm
19:49 3.2 °C -3.8 °C 1019.9 hPa Calm     60% 0 mm
19:54 3.2 °C -3.8 °C 1019.9 hPa Calm     60% 0 mm
19:59 3.2 °C -3.8 °C 1019.9 hPa Calm     60% 0 mm
20:04 3.2 °C -3.4 °C 1020.2 hPa Calm     62% 0 mm
20:19 3.1 °C -3.9 °C 1020.2 hPa Calm     60% 0 mm
20:24 3.1 °C -3.9 °C 1020.2 hPa Calm     60% 0 mm
20:29 3.1 °C -3.7 °C 1020.2 hPa Calm     61% 0 mm
20:34 3.1 °C -3.9 °C 1019.9 hPa Calm     60% 0 mm
20:39 2.9 °C -3.9 °C 1019.5 hPa Calm     61% 0 mm
20:44 2.9 °C -3.9 °C 1019.5 hPa Calm     61% 0 mm
20:54 2.7 °C -4.1 °C 1019.9 hPa Calm     61% 0 mm
20:59 2.6 °C -3.9 °C 1020.2 hPa Calm     62% 0 mm
21:04 2.5 °C -4 °C 1019.9 hPa Calm     62% 0 mm
21:09 2.4 °C -3.9 °C 1019.9 hPa Calm     63% 0 mm
21:14 2.3 °C -3.8 °C 1019.5 hPa Calm     64% 0 mm
21:20 2.2 °C -3.5 °C 1019.5 hPa Calm     66% 0 mm
21:25 2.1 °C -3 °C 1019.9 hPa Calm     69% 0 mm
21:35 2.2 °C -2.5 °C 1019.9 hPa Calm     71% 0 mm
21:40 2.1 °C -2.4 °C 1020.2 hPa Calm     72% 0 mm
21:45 2.1 °C -2.6 °C 1020.2 hPa Calm     71% 0 mm
21:50 2 °C -2.9 °C 1019.9 hPa Calm     70% 0 mm
22:05 1.9 °C -2.8 °C 1019.9 hPa Calm     71% 0 mm
22:16 1.8 °C -3.1 °C 1019.9 hPa Calm     70% 0 mm
22:21 1.8 °C -2.9 °C 1019.5 hPa Calm     71% 0 mm
22:23 1.8 °C -2.9 °C 1019.9 hPa Calm     71% 0 mm
22:28 1.9 °C -2.8 °C 1019.5 hPa Calm     71% 0 mm
22:33 1.9 °C -3 °C 1019.5 hPa Calm     70% 0 mm
22:38 1.9 °C -3 °C 1019.5 hPa Calm     70% 0 mm
22:43 1.9 °C -2.8 °C 1019.9 hPa Calm     71% 0 mm
22:48 1.9 °C -2.8 °C 1019.9 hPa Calm     71% 0 mm
22:58 1.8 °C -2.7 °C 1019.9 hPa Calm     72% 0 mm
23:03 1.8 °C -3.1 °C 1019.5 hPa Calm     70% 0 mm
23:08 1.9 °C -2.8 °C 1019.5 hPa Calm     71% 0 mm
23:14 1.9 °C -3 °C 1019.5 hPa Calm     70% 0 mm
23:19 1.9 °C -3 °C 1019.5 hPa Calm     70% 0 mm
23:24 2 °C -2.3 °C 1019.9 hPa Calm     73% 0 mm
23:29 1.9 °C -2.4 °C 1019.9 hPa Calm     73% 0 mm
23:34 1.8 °C -2.3 °C 1019.9 hPa Calm     74% 0 mm
23:44 1.5 °C -2.1 °C 1019.9 hPa Calm     77% 0 mm
23:49 1.3 °C -2.3 °C 1019.9 hPa Calm     77% 0 mm
23:54 1.3 °C -2.8 °C 1019.5 hPa Calm     74% 0 mm
WheeWeather.com
Compliments of Weather Underground - 3.5 mb